Floweree, MT (59440)

04:27 MDT le 05 août 2015 (GMT -0600)
Countryside Village | | Change Station
CLOSE
Current Station
Stations météorologiques personnelles
Location: Great Falls, MT
Altitude: 3514 ft
Stations météo à proximité

Alt. 3514 ft 47.54 °N, 111.29 °W | Updated 3 seconds ago

Ciel dégagé
Ciel dégagé
54.8 ° F
Paraît 54.8 ° F
N
1.6
Vent Variable Vent de Ouest
Gusts 5.4 mph

Aujourd'hui
Haut(e) -- | Bas -- ° F
--% Risque de précip.
Hier
Haut(e) -- | Bas -- ° F
Precip. -- pouce
6:07 AM 8:53 PM
Lune gibbeuse décroissante, 68% visible
Pression 29.87 pouce
Visibilité 10.0 Miles terrestres
Nuages Peu 14000 ft
Point de rosée 53 ° F
Humidité 93%
Précipitations 0.00 pouce
Profondeur de la couche neigeuse Non disponible.
UV 0 sur 12
Pollen 7.10 sur 12
Qualité de l'air Non disponible.
Flu Activity Non disponible.
METAR KGFA 050956Z AUTO 29002KT 10SM FEW140 14/11 A2993 RMK AO2 SLP114 T01390106 TSNO $

More Conditions Fewer Conditions

Pression 29.87 pouce
Visibilité 10.0 Miles terrestres
Nuages Peu 14000 ft
Point de rosée 53 ° F
Humidité 93%
Précipitations 0.00 pouce
Profondeur de la couche neigeuse Non disponible.
UV 0 sur 12
Pollen 7.10 sur 12
Qualité de l'air Non disponible.
Flu Activity Non disponible.
METAR KGFA 050956Z AUTO 29002KT 10SM FEW140 14/11 A2993 RMK AO2 SLP114 T01390106 TSNO $

More Conditions Fewer Conditions

10-Day Weather Forecast

×

Almanac

Astronomie

Aug. 05, 2015 Lever Coucher
Temps réel
Crépuscule civil
Crépuscule nautique
Crépuscule astronomique
Lune
Durée de lumière visible
Longueur du jour
Tomorrow will be .
, % of the Moon is Illuminated

Extrêmes aujourd'hui

State Highs State Lows

Community

WunderPhotos

Upload Photos

1,844,113 Photos téléchargées !

WunderBlogs® & News

Nearby

Qualité de l'air

  Qualité de l'air Indice de la qualité de l'air Polluant
Not available.

Épaisseur de neige

Station Depth Altitude

Activité sismique

Ville Distance Mag. Time & Date
Minimum magnitude displayed is 2.5.

Températures des eaux côtières

Lieu Température

Stations

Stations météo à proximité

Emplacement de la station Température Refroidissement éolien Point de rosée Humidité Vent Precip. Alt. Mise à jour Type